Arlington, Mississippi
Current Conditions -  °F | °C
As of 3:35 PM on Friday 28 Nov 2014 (Local Time) from K1R7 Reporting Station
Clear Clear  
Wind Chill: 59°   Ceiling: Unl
Heat Index: 59°   Visibility: 10mi
Dew Point: 28°   Wind: 6mph
Humidity: 31%   Direction: 180°S
Pressure: 30.28"   Gusts: NA
Location:  31.4439°N, 90.4692°W
Report Text: K1R7 282135Z AUTO 18005KT 10SM CLR 15/M02 A3028 RMK AO2
Loading
Personal Weather Stations






























Interactive Weather Map New forecast layout! Learn more

10-Day Weather Forecast

Advertisements
Track Severe Weather on mobile